createdAt,value
2019-05-28T00:00:01.801Z,0.00
2019-05-28T00:00:51.755Z,0.00
2019-05-28T00:01:51.808Z,0.00
2019-05-28T00:02:51.700Z,0.00
2019-05-28T00:03:51.670Z,0.00
2019-05-28T00:04:51.651Z,0.00
2019-05-28T00:05:51.614Z,0.00
2019-05-28T00:06:51.618Z,0.00
2019-05-28T00:07:51.568Z,0.00
2019-05-28T00:08:51.535Z,0.00
2019-05-28T00:09:51.503Z,0.00
2019-05-28T00:10:51.566Z,0.00
2019-05-28T00:11:51.489Z,0.00
2019-05-28T00:12:51.444Z,0.00
2019-05-28T00:13:51.427Z,0.00
2019-05-28T00:14:51.371Z,0.00
2019-05-28T00:15:51.349Z,0.00
2019-05-28T00:16:51.337Z,0.00
2019-05-28T00:17:51.283Z,0.00
2019-05-28T00:18:51.257Z,0.00
2019-05-28T00:19:51.230Z,0.00
2019-05-28T00:20:51.205Z,0.00
2019-05-28T00:21:51.201Z,0.00
2019-05-28T00:22:51.147Z,0.00
2019-05-28T00:23:51.159Z,0.00
2019-05-28T00:24:51.092Z,0.00
2019-05-28T00:25:51.065Z,0.00
2019-05-28T00:26:51.077Z,0.00
2019-05-28T00:27:51.012Z,0.00
2019-05-28T00:28:50.981Z,0.00
2019-05-28T00:29:50.961Z,0.00
2019-05-28T00:30:50.928Z,0.00
2019-05-28T00:31:50.923Z,0.00
2019-05-28T00:32:50.875Z,0.00
2019-05-28T00:33:50.857Z,0.00
2019-05-28T00:34:50.821Z,0.00
2019-05-28T00:35:50.788Z,0.00
2019-05-28T00:36:50.788Z,0.00
2019-05-28T00:37:50.731Z,0.00
2019-05-28T00:38:50.709Z,0.00
2019-05-28T00:39:50.682Z,0.00
2019-05-28T00:40:50.659Z,0.00
2019-05-28T00:41:50.649Z,0.00
2019-05-28T00:42:50.595Z,0.00
2019-05-28T00:43:50.565Z,0.00
2019-05-28T00:44:50.539Z,0.00
2019-05-28T00:45:50.513Z,0.00
2019-05-28T00:46:50.505Z,0.00
2019-05-28T00:47:50.469Z,0.00
2019-05-28T00:48:50.429Z,0.00
2019-05-28T00:49:50.404Z,0.00
2019-05-28T00:50:50.379Z,0.00
2019-05-28T00:51:50.364Z,0.00
2019-05-28T00:52:50.313Z,0.00
2019-05-28T00:53:50.287Z,0.00
2019-05-28T00:54:50.262Z,0.00
2019-05-28T00:55:50.229Z,0.00
2019-05-28T00:56:50.236Z,0.00
2019-05-28T00:57:50.172Z,0.00
2019-05-28T00:58:50.145Z,0.00
2019-05-28T00:59:50.117Z,0.00
2019-05-28T01:00:50.088Z,0.00
2019-05-28T01:01:50.078Z,0.00
2019-05-28T01:02:50.341Z,0.00
2019-05-28T01:03:50.007Z,0.00
2019-05-28T01:04:50.005Z,0.00
2019-05-28T01:05:49.950Z,0.00
2019-05-28T01:06:49.927Z,0.00
2019-05-28T01:07:49.913Z,0.00
2019-05-28T01:08:49.861Z,0.00
2019-05-28T01:09:49.835Z,0.00
2019-05-28T01:10:49.808Z,0.00
2019-05-28T01:11:49.780Z,0.00
2019-05-28T01:12:49.771Z,0.00
2019-05-28T01:13:49.721Z,0.00
2019-05-28T01:14:49.696Z,0.00
2019-05-28T01:15:49.673Z,0.00
2019-05-28T01:16:49.647Z,0.00
2019-05-28T01:17:49.632Z,0.00
2019-05-28T01:18:49.583Z,0.00
2019-05-28T01:19:49.552Z,0.00
2019-05-28T01:20:49.599Z,0.00
2019-05-28T01:21:49.498Z,0.00
2019-05-28T01:22:49.488Z,0.00
2019-05-28T01:23:49.439Z,0.00
2019-05-28T01:24:49.406Z,0.00
2019-05-28T01:25:49.381Z,0.00
2019-05-28T01:26:49.351Z,0.00
2019-05-28T01:27:49.348Z,0.00
2019-05-28T01:28:49.294Z,0.00
2019-05-28T01:29:49.267Z,0.00
2019-05-28T01:30:56.224Z,0.00
2019-05-28T01:31:49.213Z,0.00
2019-05-28T01:32:49.227Z,0.00
2019-05-28T01:33:49.154Z,0.00
2019-05-28T01:34:49.122Z,0.00
2019-05-28T01:35:49.091Z,0.00
2019-05-28T01:36:49.088Z,0.00
2019-05-28T01:37:49.072Z,0.00
2019-05-28T01:38:49.007Z,0.00
2019-05-28T01:39:48.979Z,0.00
2019-05-28T01:40:48.976Z,0.00
2019-05-28T01:41:48.919Z,0.00
2019-05-28T01:42:48.916Z,0.00
2019-05-28T01:43:48.862Z,0.00
2019-05-28T01:44:48.831Z,0.00
2019-05-28T01:45:48.805Z,0.00
2019-05-28T01:46:48.776Z,0.00
2019-05-28T01:47:48.827Z,0.00
2019-05-28T01:48:48.717Z,0.00
2019-05-28T01:49:48.686Z,0.00
2019-05-28T01:50:48.660Z,0.00
2019-05-28T01:51:48.633Z,0.00
2019-05-28T01:52:48.625Z,0.00
2019-05-28T01:53:48.579Z,0.00
2019-05-28T01:54:48.548Z,0.00
2019-05-28T01:55:48.516Z,0.00
2019-05-28T01:56:48.488Z,0.00
2019-05-28T01:57:48.480Z,0.00
2019-05-28T01:58:48.429Z,0.00
2019-05-28T01:59:48.414Z,0.00
2019-05-28T02:00:48.370Z,0.00
2019-05-28T02:01:48.347Z,0.00
2019-05-28T02:02:48.342Z,0.00
2019-05-28T02:03:48.286Z,0.00
2019-05-28T02:04:48.277Z,0.00
2019-05-28T02:05:48.228Z,0.00
2019-05-28T02:06:48.202Z,0.00
2019-05-28T02:07:48.193Z,0.00
2019-05-28T02:08:48.146Z,0.00
2019-05-28T02:09:48.115Z,0.00
2019-05-28T02:10:48.089Z,0.00
2019-05-28T02:11:48.058Z,0.00
2019-05-28T02:12:48.057Z,0.00
2019-05-28T02:13:47.999Z,0.00
2019-05-28T02:14:47.974Z,0.00
2019-05-28T02:15:47.942Z,0.00
2019-05-28T02:16:47.910Z,0.00
2019-05-28T02:17:47.882Z,0.00
2019-05-28T02:18:47.878Z,0.00
2019-05-28T02:19:47.829Z,0.00
2019-05-28T02:20:47.799Z,0.00
2019-05-28T02:21:47.776Z,0.00
2019-05-28T02:22:47.748Z,0.00
2019-05-28T02:23:47.734Z,0.00
2019-05-28T02:24:47.688Z,0.00
2019-05-28T02:25:47.654Z,0.00
2019-05-28T02:26:47.623Z,0.00
2019-05-28T02:27:47.596Z,0.00
2019-05-28T02:28:47.599Z,0.00
2019-05-28T02:29:47.539Z,0.00
2019-05-28T02:30:47.520Z,0.00
2019-05-28T02:31:47.479Z,0.00
2019-05-28T02:32:47.456Z,0.00
2019-05-28T02:33:47.446Z,0.00
2019-05-28T02:34:47.393Z,0.00
2019-05-28T02:35:47.368Z,0.00
2019-05-28T02:36:47.344Z,0.00
2019-05-28T02:37:47.309Z,0.00
2019-05-28T02:38:47.302Z,0.00
2019-05-28T02:39:47.251Z,0.00
2019-05-28T02:40:47.224Z,0.00
2019-05-28T02:41:47.193Z,0.00
2019-05-28T02:42:47.165Z,0.00
2019-05-28T02:43:47.167Z,0.00
2019-05-28T02:44:47.116Z,0.00
2019-05-28T02:45:47.082Z,0.00
2019-05-28T02:46:47.050Z,0.00
2019-05-28T02:47:47.042Z,0.00
2019-05-28T02:48:47.017Z,0.00
2019-05-28T02:49:46.962Z,0.00
2019-05-28T02:50:47.012Z,0.00
2019-05-28T02:51:46.910Z,5.63
2019-05-28T02:52:47.798Z,5.63
2019-05-28T02:53:46.873Z,5.63
2019-05-28T02:54:46.825Z,5.63
2019-05-28T02:55:46.791Z,5.63
2019-05-28T02:56:46.766Z,5.63
2019-05-28T02:57:46.735Z,5.63
2019-05-28T02:58:46.729Z,5.63
2019-05-28T02:59:46.674Z,5.63
2019-05-28T03:00:46.646Z,11.25
2019-05-28T03:01:46.617Z,11.25
2019-05-28T03:02:46.680Z,11.25
2019-05-28T03:03:46.584Z,11.25
2019-05-28T03:04:46.544Z,16.88
2019-05-28T03:05:46.501Z,16.88
2019-05-28T03:06:46.477Z,16.88
2019-05-28T03:07:46.443Z,16.88
2019-05-28T03:08:46.450Z,16.88
2019-05-28T03:09:46.387Z,22.50
2019-05-28T03:11:02.183Z,22.50
2019-05-28T03:11:46.342Z,22.50
2019-05-28T03:12:46.339Z,22.50
2019-05-28T03:13:46.288Z,22.50
2019-05-28T03:14:46.361Z,28.13
2019-05-28T03:15:46.219Z,28.13
2019-05-28T03:16:46.190Z,28.13
2019-05-28T03:17:46.169Z,28.13
2019-05-28T03:18:46.131Z,33.75
2019-05-28T03:19:46.129Z,33.75
2019-05-28T03:20:46.074Z,33.75
2019-05-28T03:21:46.045Z,33.75
2019-05-28T03:22:46.021Z,33.75
2019-05-28T03:23:45.994Z,33.75
2019-05-28T03:24:46.027Z,39.38
2019-05-28T03:25:45.931Z,39.38
2019-05-28T03:26:45.903Z,39.38
2019-05-28T03:27:45.875Z,45.00
2019-05-28T03:28:45.849Z,45.00
2019-05-28T03:29:45.842Z,45.00
2019-05-28T03:30:45.795Z,50.63
2019-05-28T03:32:05.985Z,50.63
2019-05-28T03:32:45.744Z,50.63
2019-05-28T03:33:45.723Z,50.63
2019-05-28T03:34:45.714Z,50.63
2019-05-28T03:35:45.659Z,56.25
2019-05-28T03:36:45.625Z,56.25
2019-05-28T03:37:45.599Z,56.25
2019-05-28T03:38:45.573Z,56.25
2019-05-28T03:39:45.564Z,56.25
2019-05-28T03:40:45.514Z,50.63
2019-05-28T03:41:45.489Z,50.63
2019-05-28T03:42:45.459Z,50.63
2019-05-28T03:43:45.428Z,50.63
2019-05-28T03:44:45.424Z,50.63
2019-05-28T03:45:45.381Z,50.63
2019-05-28T03:46:45.351Z,50.63
2019-05-28T03:47:45.320Z,50.63
2019-05-28T03:48:45.290Z,50.63
2019-05-28T03:49:45.285Z,50.63
2019-05-28T03:50:45.246Z,56.25
2019-05-28T03:51:45.205Z,56.25
2019-05-28T03:52:45.180Z,61.88
2019-05-28T03:53:45.151Z,67.50
2019-05-28T03:54:45.146Z,67.50
2019-05-28T03:55:45.137Z,73.13
2019-05-28T03:56:45.064Z,78.75
2019-05-28T03:57:45.035Z,78.75
2019-05-28T03:58:45.010Z,84.38
2019-05-28T03:59:45.008Z,90.00
2019-05-28T04:00:44.959Z,90.00
2019-05-28T04:01:44.916Z,90.00
2019-05-28T04:02:44.887Z,90.00
2019-05-28T04:03:44.860Z,90.00
2019-05-28T04:04:44.860Z,95.63
2019-05-28T04:05:44.806Z,101.25
2019-05-28T04:06:44.778Z,101.25
2019-05-28T04:07:44.748Z,112.50
2019-05-28T04:08:44.723Z,118.13
2019-05-28T04:09:44.774Z,123.75
2019-05-28T04:10:44.664Z,135.00
2019-05-28T04:11:45.417Z,140.63
2019-05-28T04:12:44.608Z,146.25
2019-05-28T04:13:44.593Z,151.88
2019-05-28T04:14:44.589Z,157.50
2019-05-28T04:15:44.526Z,163.13
2019-05-28T04:16:44.499Z,168.75
2019-05-28T04:17:44.475Z,174.38
2019-05-28T04:18:44.444Z,185.63
2019-05-28T04:19:44.456Z,191.25
2019-05-28T04:20:44.411Z,191.25
2019-05-28T04:21:44.360Z,196.88
2019-05-28T04:22:44.338Z,208.13
2019-05-28T04:23:44.307Z,213.75
2019-05-28T04:24:44.288Z,225.00
2019-05-28T04:25:44.280Z,236.25
2019-05-28T04:26:44.225Z,253.13
2019-05-28T04:27:44.196Z,270.00
2019-05-28T04:28:44.164Z,281.25
2019-05-28T04:29:44.145Z,292.50
2019-05-28T04:30:44.137Z,309.38
2019-05-28T04:31:44.087Z,320.63
2019-05-28T04:32:44.057Z,326.25
2019-05-28T04:33:44.039Z,326.25
2019-05-28T04:34:44.019Z,326.25
2019-05-28T04:35:43.999Z,320.63
2019-05-28T04:36:43.952Z,320.63
2019-05-28T04:37:43.920Z,320.63
2019-05-28T04:38:43.893Z,315.00
2019-05-28T04:39:43.869Z,315.00
2019-05-28T04:40:43.874Z,309.38
2019-05-28T04:41:43.812Z,315.00
2019-05-28T04:42:43.790Z,320.63
2019-05-28T04:43:43.756Z,326.25
2019-05-28T04:44:43.731Z,343.13
2019-05-28T04:45:43.729Z,348.75
2019-05-28T04:46:43.677Z,354.38
2019-05-28T04:47:43.648Z,360.00
2019-05-28T04:48:43.625Z,360.00
2019-05-28T04:49:43.594Z,354.38
2019-05-28T04:50:43.602Z,354.38
2019-05-28T04:51:43.565Z,354.38
2019-05-28T04:52:43.520Z,360.00
2019-05-28T04:53:43.494Z,365.63
2019-05-28T04:54:43.462Z,365.63
2019-05-28T04:55:43.461Z,371.25
2019-05-28T04:56:43.407Z,360.00
2019-05-28T04:57:43.381Z,360.00
2019-05-28T04:58:43.354Z,337.50
2019-05-28T04:59:43.332Z,326.25
2019-05-28T05:00:43.343Z,315.00
2019-05-28T05:01:43.276Z,298.13
2019-05-28T05:02:58.137Z,298.13
2019-05-28T05:03:43.224Z,292.50
2019-05-28T05:04:43.202Z,286.88
2019-05-28T05:05:43.191Z,286.88
2019-05-28T05:06:43.140Z,281.25
2019-05-28T05:07:43.143Z,281.25
2019-05-28T05:08:43.088Z,281.25
2019-05-28T05:09:43.060Z,281.25
2019-05-28T05:10:43.069Z,286.88
2019-05-28T05:11:43.031Z,292.50
2019-05-28T05:12:42.983Z,303.75
2019-05-28T05:13:42.953Z,309.38
2019-05-28T05:14:42.938Z,315.00
2019-05-28T05:15:42.932Z,315.00
2019-05-28T05:16:42.873Z,320.63
2019-05-28T05:17:42.848Z,326.25
2019-05-28T05:18:42.817Z,343.13
2019-05-28T05:19:42.794Z,348.75
2019-05-28T05:20:42.793Z,360.00
2019-05-28T05:21:42.744Z,371.25
2019-05-28T05:22:42.714Z,376.88
2019-05-28T05:23:42.692Z,382.50
2019-05-28T05:24:42.682Z,382.50
2019-05-28T05:25:42.666Z,382.50
2019-05-28T05:26:42.610Z,393.75
2019-05-28T05:27:42.579Z,388.13
2019-05-28T05:28:42.552Z,388.13
2019-05-28T05:29:42.528Z,393.75
2019-05-28T05:30:42.526Z,393.75
2019-05-28T05:31:42.471Z,399.38
2019-05-28T05:32:42.449Z,399.38
2019-05-28T05:33:42.413Z,399.38
2019-05-28T05:34:42.416Z,399.38
2019-05-28T05:35:42.365Z,405.00
2019-05-28T05:36:42.361Z,416.25
2019-05-28T05:37:42.323Z,421.88
2019-05-28T05:38:42.282Z,427.50
2019-05-28T05:39:42.256Z,433.13
2019-05-28T05:40:42.237Z,438.75
2019-05-28T05:41:42.229Z,444.38
2019-05-28T05:42:42.179Z,450.00
2019-05-28T05:43:42.159Z,455.63
2019-05-28T05:44:42.122Z,455.63
2019-05-28T05:45:42.104Z,461.25
2019-05-28T05:46:42.095Z,466.88
2019-05-28T05:47:42.094Z,466.88
2019-05-28T05:48:42.040Z,466.88
2019-05-28T05:49:41.996Z,461.25
2019-05-28T05:50:45.114Z,461.25
2019-05-28T05:51:41.968Z,461.25
2019-05-28T05:52:41.918Z,461.25
2019-05-28T05:53:41.890Z,455.63
2019-05-28T05:54:41.875Z,461.25
2019-05-28T05:55:41.835Z,466.88
2019-05-28T05:56:41.848Z,472.50
2019-05-28T05:57:41.786Z,483.75
2019-05-28T05:58:41.760Z,495.00
2019-05-28T05:59:41.736Z,500.63
2019-05-28T06:00:41.713Z,517.50
2019-05-28T06:01:41.740Z,523.13
2019-05-28T06:02:41.671Z,534.38
2019-05-28T06:03:42.193Z,545.63
2019-05-28T06:04:41.604Z,556.88
2019-05-28T06:05:41.581Z,568.13
2019-05-28T06:06:41.583Z,590.63
2019-05-28T06:07:41.546Z,596.25
2019-05-28T06:08:41.507Z,618.75
2019-05-28T06:09:41.477Z,635.63
2019-05-28T06:10:41.453Z,652.50
2019-05-28T06:11:41.449Z,663.75
2019-05-28T06:12:41.446Z,669.38
2019-05-28T06:13:41.379Z,686.25
2019-05-28T06:14:41.358Z,703.13
2019-05-28T06:15:41.328Z,725.63
2019-05-28T06:16:41.321Z,736.88
2019-05-28T06:17:41.273Z,748.13
2019-05-28T06:18:41.291Z,753.75
2019-05-28T06:19:41.227Z,776.25
2019-05-28T06:20:41.218Z,776.25
2019-05-28T06:21:41.198Z,787.50
2019-05-28T06:22:41.152Z,787.50
2019-05-28T06:23:41.148Z,787.50
2019-05-28T06:24:41.100Z,798.75
2019-05-28T06:25:41.077Z,787.50
2019-05-28T06:26:41.073Z,793.13
2019-05-28T06:27:41.034Z,804.38
2019-05-28T06:28:41.007Z,821.25
2019-05-28T06:29:40.982Z,832.50
2019-05-28T06:30:40.958Z,843.75
2019-05-28T06:31:40.958Z,843.75
2019-05-28T06:32:40.908Z,849.38
2019-05-28T06:33:55.628Z,860.63
2019-05-28T06:34:40.864Z,860.63
2019-05-28T06:35:40.837Z,866.25
2019-05-28T06:36:40.835Z,860.63
2019-05-28T06:37:40.792Z,855.00
2019-05-28T06:38:40.769Z,855.00
2019-05-28T06:39:40.740Z,855.00
2019-05-28T06:40:40.727Z,855.00
2019-05-28T06:41:40.717Z,855.00
2019-05-28T06:42:40.669Z,860.63
2019-05-28T06:43:40.645Z,849.38
2019-05-28T06:44:40.643Z,843.75
2019-05-28T06:45:40.600Z,843.75
2019-05-28T06:46:40.609Z,832.50
2019-05-28T06:47:44.987Z,832.50
2019-05-28T06:48:40.525Z,821.25
2019-05-28T06:49:40.501Z,815.63
2019-05-28T06:50:40.479Z,815.63
2019-05-28T06:51:40.454Z,815.63
2019-05-28T06:52:40.456Z,815.63
2019-05-28T06:53:40.413Z,815.63
2019-05-28T06:54:40.973Z,815.63
2019-05-28T06:55:40.368Z,810.00
2019-05-28T06:56:40.339Z,810.00
2019-05-28T06:57:40.338Z,804.38
2019-05-28T06:58:40.643Z,804.38
2019-05-28T06:59:40.265Z,798.75
2019-05-28T07:00:40.255Z,798.75
2019-05-28T07:01:40.223Z,793.13
2019-05-28T07:02:40.223Z,793.13
2019-05-28T07:03:40.199Z,793.13
2019-05-28T07:04:40.153Z,793.13
2019-05-28T07:05:40.128Z,793.13
2019-05-28T07:06:40.103Z,793.13
2019-05-28T07:07:40.118Z,793.13
2019-05-28T07:08:40.064Z,793.13
2019-05-28T07:09:40.042Z,787.50
2019-05-28T07:10:56.633Z,776.25
2019-05-28T07:11:39.993Z,776.25
2019-05-28T07:12:39.986Z,770.63
2019-05-28T07:13:39.940Z,770.63
2019-05-28T07:14:39.918Z,776.25
2019-05-28T07:15:39.893Z,776.25
2019-05-28T07:16:52.712Z,781.88
2019-05-28T07:17:39.877Z,781.88
2019-05-28T07:18:39.829Z,787.50
2019-05-28T07:19:39.851Z,793.13
2019-05-28T07:20:39.787Z,798.75
2019-05-28T07:21:39.762Z,798.75
2019-05-28T07:22:39.769Z,798.75
2019-05-28T07:23:39.711Z,798.75
2019-05-28T07:24:39.683Z,798.75
2019-05-28T07:25:39.659Z,798.75
2019-05-28T07:26:39.639Z,798.75
2019-05-28T07:27:39.662Z,787.50
2019-05-28T07:28:39.659Z,787.50
2019-05-28T07:29:39.572Z,781.88
2019-05-28T07:30:39.546Z,776.25
2019-05-28T07:31:39.524Z,770.63
2019-05-28T07:32:39.975Z,765.00
2019-05-28T07:33:39.474Z,759.38
2019-05-28T07:34:48.448Z,753.75
2019-05-28T07:35:45.809Z,753.75
2019-05-28T07:36:40.387Z,753.75
2019-05-28T07:37:39.407Z,753.75
2019-05-28T07:38:39.403Z,753.75
2019-05-28T07:39:39.335Z,753.75
2019-05-28T07:40:39.340Z,759.38
2019-05-28T07:41:39.289Z,753.75
2019-05-28T07:42:39.286Z,753.75
2019-05-28T07:43:39.245Z,753.75
2019-05-28T07:44:39.217Z,759.38
2019-05-28T07:45:39.198Z,759.38
2019-05-28T07:46:39.187Z,765.00
2019-05-28T07:47:39.172Z,765.00
2019-05-28T07:48:39.129Z,765.00
2019-05-28T07:49:39.109Z,759.38
2019-05-28T07:50:39.097Z,753.75
2019-05-28T07:51:39.058Z,753.75
2019-05-28T07:52:39.059Z,753.75
2019-05-28T07:53:40.660Z,748.13
2019-05-28T07:54:39.650Z,748.13
2019-05-28T07:55:38.969Z,736.88
2019-05-28T07:56:38.943Z,736.88
2019-05-28T07:57:38.952Z,736.88
2019-05-28T07:58:38.940Z,742.50
2019-05-28T07:59:38.891Z,748.13
2019-05-28T08:00:38.852Z,753.75
2019-05-28T08:01:38.843Z,759.38
2019-05-28T08:02:38.832Z,765.00
2019-05-28T08:03:38.787Z,770.63
2019-05-28T08:04:47.185Z,776.25
2019-05-28T08:05:38.733Z,776.25
2019-05-28T08:06:53.658Z,776.25
2019-05-28T08:07:38.683Z,765.00
2019-05-28T08:08:38.700Z,759.38
2019-05-28T08:09:38.638Z,765.00
2019-05-28T08:10:38.625Z,770.63
2019-05-28T08:11:38.595Z,776.25
2019-05-28T08:12:38.569Z,781.88
2019-05-28T08:13:41.015Z,793.13
2019-05-28T08:14:38.645Z,798.75
2019-05-28T08:15:38.502Z,810.00
2019-05-28T08:16:51.921Z,810.00
2019-05-28T08:17:38.452Z,821.25
2019-05-28T08:18:38.458Z,826.88
2019-05-28T08:19:38.410Z,832.50
2019-05-28T08:20:38.381Z,838.13
2019-05-28T08:21:38.376Z,838.13
2019-05-28T08:22:42.700Z,838.13
2019-05-28T08:23:38.343Z,838.13
2019-05-28T08:24:38.292Z,832.50
2019-05-28T08:25:46.645Z,832.50
2019-05-28T08:26:38.252Z,838.13
2019-05-28T08:27:38.223Z,843.75
2019-05-28T08:28:38.217Z,843.75
2019-05-28T08:29:38.172Z,849.38
2019-05-28T08:30:38.171Z,849.38
2019-05-28T08:31:38.129Z,860.63
2019-05-28T08:32:38.157Z,866.25
2019-05-28T08:33:38.105Z,877.50
2019-05-28T08:34:38.066Z,877.50
2019-05-28T08:35:38.035Z,883.13
2019-05-28T08:36:38.020Z,877.50
2019-05-28T08:37:37.994Z,883.13
2019-05-28T08:38:38.006Z,888.75
2019-05-28T08:39:37.959Z,888.75
2019-05-28T08:40:37.928Z,883.13
2019-05-28T08:41:37.905Z,888.75
2019-05-28T08:42:37.880Z,894.38
2019-05-28T08:43:37.877Z,894.38
2019-05-28T08:44:37.830Z,900.00
2019-05-28T08:45:37.811Z,905.63
2019-05-28T08:46:37.787Z,916.88
2019-05-28T08:47:37.764Z,916.88
2019-05-28T08:48:37.759Z,916.88
2019-05-28T08:49:37.717Z,922.50
2019-05-28T08:50:37.694Z,928.13
2019-05-28T08:51:37.669Z,939.38
2019-05-28T08:52:37.649Z,939.38
2019-05-28T08:53:37.651Z,956.25
2019-05-28T08:54:37.602Z,950.63
2019-05-28T08:55:37.583Z,956.25
2019-05-28T08:56:37.572Z,956.25
2019-05-28T08:57:38.022Z,967.50
2019-05-28T08:58:37.549Z,973.13
2019-05-28T08:59:37.498Z,973.13
2019-05-28T09:00:37.503Z,984.38
2019-05-28T09:01:37.509Z,984.38
2019-05-28T09:02:37.425Z,984.38
2019-05-28T09:03:37.423Z,984.38
2019-05-28T09:04:37.385Z,984.38
2019-05-28T09:05:37.365Z,984.38
2019-05-28T09:06:37.335Z,990.00
2019-05-28T09:07:37.315Z,995.63
2019-05-28T09:08:39.831Z,990.00
2019-05-28T09:09:37.263Z,1001.25
2019-05-28T09:10:37.263Z,1001.25
2019-05-28T09:11:37.248Z,1006.88
2019-05-28T09:12:37.205Z,1012.50
2019-05-28T09:13:37.199Z,1018.13
2019-05-28T09:14:54.881Z,1023.75
2019-05-28T09:15:37.130Z,1023.75
2019-05-28T09:16:37.104Z,1023.75
2019-05-28T09:17:37.083Z,1023.75
2019-05-28T09:18:37.065Z,1012.50
2019-05-28T09:19:37.095Z,1001.25
2019-05-28T09:20:37.022Z,1001.25
2019-05-28T09:21:37.000Z,1001.25
2019-05-28T09:22:36.979Z,1001.25
2019-05-28T09:23:36.949Z,1001.25
2019-05-28T09:24:36.963Z,1006.88
2019-05-28T09:25:36.918Z,1012.50
2019-05-28T09:26:36.894Z,1018.13
2019-05-28T09:27:36.945Z,1018.13
2019-05-28T09:28:36.846Z,1018.13
2019-05-28T09:29:36.845Z,1012.50
2019-05-28T09:30:36.795Z,1012.50
2019-05-28T09:31:36.780Z,1006.88
2019-05-28T09:32:36.782Z,1029.38
2019-05-28T09:33:36.733Z,1051.88
2019-05-28T09:34:37.130Z,1051.88
2019-05-28T09:35:44.723Z,1051.88
2019-05-28T09:36:36.668Z,1040.63
2019-05-28T09:37:36.667Z,1029.38
2019-05-28T09:38:36.627Z,1023.75
2019-05-28T09:39:36.628Z,1018.13
2019-05-28T09:40:49.364Z,1006.88
2019-05-28T09:41:36.569Z,1006.88
2019-05-28T09:42:36.540Z,1006.88
2019-05-28T09:43:36.519Z,1012.50
2019-05-28T09:44:36.528Z,1023.75
2019-05-28T09:45:36.534Z,1035.00
2019-05-28T09:46:36.448Z,1046.25
2019-05-28T09:47:36.431Z,1051.88
2019-05-28T09:48:36.406Z,1051.88
2019-05-28T09:49:36.408Z,1051.88
2019-05-28T09:50:36.365Z,1051.88
2019-05-28T09:51:36.342Z,1046.25
2019-05-28T09:52:53.050Z,1035.00
2019-05-28T09:53:36.303Z,1035.00
2019-05-28T09:54:36.346Z,1040.63
2019-05-28T09:55:36.438Z,1046.25
2019-05-28T09:56:36.243Z,1051.88
2019-05-28T09:57:46.934Z,1057.50
2019-05-28T09:58:36.190Z,1057.50
2019-05-28T09:59:41.407Z,1051.88
2019-05-28T10:00:36.142Z,1057.50
2019-05-28T10:01:37.296Z,1051.88
2019-05-28T10:02:36.101Z,1046.25
2019-05-28T10:03:36.090Z,1035.00
2019-05-28T10:04:48.359Z,1035.00
2019-05-28T10:05:37.027Z,1035.00
2019-05-28T10:06:37.437Z,1040.63
2019-05-28T10:07:36.005Z,1035.00
2019-05-28T10:08:35.986Z,1040.63
2019-05-28T10:09:35.987Z,1040.63
2019-05-28T10:10:35.936Z,1040.63
2019-05-28T10:11:35.911Z,1040.63
2019-05-28T10:12:35.892Z,1057.50
2019-05-28T10:13:40.523Z,1063.13
2019-05-28T10:14:35.885Z,1068.75
2019-05-28T10:15:36.075Z,1080.00
2019-05-28T10:16:36.934Z,1063.13
2019-05-28T10:17:35.789Z,1046.25
2019-05-28T10:18:35.769Z,1023.75
2019-05-28T10:19:35.766Z,990.00
2019-05-28T10:20:38.210Z,1023.75
2019-05-28T10:21:35.703Z,1057.50
2019-05-28T10:22:35.683Z,1068.75
2019-05-28T10:23:35.693Z,1080.00
2019-05-28T10:24:35.672Z,1085.63
2019-05-28T10:25:35.646Z,1080.00
2019-05-28T10:26:35.598Z,1080.00
2019-05-28T10:27:35.582Z,1091.25
2019-05-28T10:28:35.564Z,1091.25
2019-05-28T10:29:35.570Z,1091.25
2019-05-28T10:30:35.516Z,1091.25
2019-05-28T10:31:35.496Z,1096.88
2019-05-28T10:32:35.484Z,1091.25
2019-05-28T10:33:35.458Z,1096.88
2019-05-28T10:34:35.436Z,1096.88
2019-05-28T10:35:35.436Z,1108.13
2019-05-28T10:36:37.753Z,1119.38
2019-05-28T10:37:35.405Z,1119.38
2019-05-28T10:38:35.349Z,1119.38
2019-05-28T10:39:35.332Z,1108.13
2019-05-28T10:40:35.334Z,1102.50
2019-05-28T10:41:35.296Z,1091.25
2019-05-28T10:42:35.329Z,1091.25
2019-05-28T10:43:35.249Z,1102.50
2019-05-28T10:44:35.228Z,1096.88
2019-05-28T10:45:35.230Z,1057.50
2019-05-28T10:46:35.186Z,1040.63
2019-05-28T10:47:35.177Z,1018.13
2019-05-28T10:48:35.153Z,995.63
2019-05-28T10:49:35.122Z,1018.13
2019-05-28T10:50:35.125Z,1068.75
2019-05-28T10:51:35.092Z,1091.25
2019-05-28T10:52:35.067Z,1091.25
2019-05-28T10:53:35.047Z,1091.25
2019-05-28T10:54:35.076Z,1074.38
2019-05-28T10:55:35.023Z,1068.75
2019-05-28T10:56:34.978Z,1057.50
2019-05-28T10:57:34.960Z,1051.88
2019-05-28T10:58:34.946Z,1035.00
2019-05-28T10:59:34.918Z,1006.88
2019-05-28T11:00:34.929Z,956.25
2019-05-28T11:01:34.906Z,916.88
2019-05-28T11:02:37.449Z,916.88
2019-05-28T11:03:34.843Z,928.13
2019-05-28T11:04:34.817Z,967.50
2019-05-28T11:05:34.828Z,1023.75
2019-05-28T11:06:48.877Z,1057.50
2019-05-28T11:07:34.758Z,1051.88
2019-05-28T11:08:34.733Z,1023.75
2019-05-28T11:09:34.713Z,990.00
2019-05-28T11:10:34.718Z,984.38
2019-05-28T11:11:34.678Z,1006.88
2019-05-28T11:12:34.657Z,1057.50
2019-05-28T11:13:34.626Z,1074.38
2019-05-28T11:14:34.611Z,1085.63
2019-05-28T11:15:34.611Z,1091.25
2019-05-28T11:16:34.574Z,1096.88
2019-05-28T11:17:34.551Z,1096.88
2019-05-28T11:18:34.526Z,1074.38
2019-05-28T11:19:34.505Z,1063.13
2019-05-28T11:20:34.509Z,1063.13
2019-05-28T11:21:34.465Z,1074.38
2019-05-28T11:22:34.441Z,1091.25
2019-05-28T11:23:34.436Z,1119.38
2019-05-28T11:24:34.404Z,1158.75
2019-05-28T11:25:34.400Z,1198.13
2019-05-28T11:26:34.356Z,1203.75
2019-05-28T11:27:34.344Z,1198.13
2019-05-28T11:28:34.316Z,1181.25
2019-05-28T11:29:34.297Z,1170.00
2019-05-28T11:30:34.328Z,1164.38
2019-05-28T11:31:34.261Z,1164.38
2019-05-28T11:32:34.231Z,1164.38
2019-05-28T11:33:34.214Z,1170.00
2019-05-28T11:34:34.193Z,1170.00
2019-05-28T11:35:34.192Z,1147.50
2019-05-28T11:36:34.149Z,1125.00
2019-05-28T11:37:34.133Z,1113.75
2019-05-28T11:38:34.113Z,1085.63
2019-05-28T11:39:34.089Z,1057.50
2019-05-28T11:40:34.099Z,1035.00
2019-05-28T11:41:41.870Z,1012.50
2019-05-28T11:42:34.024Z,1006.88
2019-05-28T11:43:34.005Z,1018.13
2019-05-28T11:44:33.994Z,1040.63
2019-05-28T11:45:33.966Z,1046.25
2019-05-28T11:46:33.974Z,1057.50
2019-05-28T11:47:33.925Z,1057.50
2019-05-28T11:48:33.926Z,1051.88
2019-05-28T11:49:33.883Z,1051.88
2019-05-28T11:50:33.892Z,1063.13
2019-05-28T11:51:33.889Z,1068.75
2019-05-28T11:52:33.817Z,1080.00
2019-05-28T11:53:36.791Z,1085.63
2019-05-28T11:54:33.799Z,1091.25
2019-05-28T11:55:33.765Z,1096.88
2019-05-28T11:56:34.090Z,1102.50
2019-05-28T11:57:33.718Z,1102.50
2019-05-28T11:58:33.711Z,1096.88
2019-05-28T11:59:33.683Z,1074.38
2019-05-28T12:00:33.654Z,1057.50
2019-05-28T12:01:35.433Z,1029.38
2019-05-28T12:02:33.610Z,1006.88
2019-05-28T12:03:33.611Z,984.38
2019-05-28T12:04:33.571Z,967.50
2019-05-28T12:05:33.565Z,950.63
2019-05-28T12:06:38.186Z,933.75
2019-05-28T12:07:33.508Z,928.13
2019-05-28T12:08:33.485Z,933.75
2019-05-28T12:09:33.474Z,945.00
2019-05-28T12:10:33.460Z,961.88
2019-05-28T12:11:33.467Z,973.13
2019-05-28T12:12:33.400Z,995.63
2019-05-28T12:13:33.386Z,1018.13
2019-05-28T12:14:34.058Z,1029.38
2019-05-28T12:15:33.343Z,1035.00
2019-05-28T12:16:33.344Z,1040.63
2019-05-28T12:17:42.481Z,1046.25
2019-05-28T12:18:33.279Z,1063.13
2019-05-28T12:19:33.259Z,1063.13
2019-05-28T12:20:33.237Z,1068.75
2019-05-28T12:21:33.275Z,1074.38
2019-05-28T12:22:33.197Z,1085.63
2019-05-28T12:23:33.193Z,1085.63
2019-05-28T12:24:33.162Z,1096.88
2019-05-28T12:25:33.133Z,1108.13
2019-05-28T12:26:33.138Z,1113.75
2019-05-28T12:27:38.976Z,1102.50
2019-05-28T12:28:38.178Z,1091.25
2019-05-28T12:29:33.052Z,1080.00
2019-05-28T12:30:33.116Z,1063.13
2019-05-28T12:31:33.029Z,1040.63
2019-05-28T12:32:32.985Z,1012.50
2019-05-28T12:33:32.972Z,995.63
2019-05-28T12:34:32.946Z,990.00
2019-05-28T12:35:32.929Z,990.00